sensor_id;sensor_type;location;lat;lon;timestamp;temperature;humidity
20068;DHT22;10194;50.824;7.134;2022-10-16T00:01:13;14.20;99.90
20068;DHT22;10194;50.824;7.134;2022-10-16T00:03:41;14.20;99.90
20068;DHT22;10194;50.824;7.134;2022-10-16T00:06:08;14.20;99.90
20068;DHT22;10194;50.824;7.134;2022-10-16T00:08:35;14.30;99.90
20068;DHT22;10194;50.824;7.134;2022-10-16T00:11:04;14.30;99.90
20068;DHT22;10194;50.824;7.134;2022-10-16T00:13:33;14.20;99.90
20068;DHT22;10194;50.824;7.134;2022-10-16T00:16:00;14.20;99.90
20068;DHT22;10194;50.824;7.134;2022-10-16T00:18:27;14.20;99.90
20068;DHT22;10194;50.824;7.134;2022-10-16T00:20:54;14.30;99.90
20068;DHT22;10194;50.824;7.134;2022-10-16T00:23:20;14.30;99.90
20068;DHT22;10194;50.824;7.134;2022-10-16T00:26:00;14.30;99.90
20068;DHT22;10194;50.824;7.134;2022-10-16T00:28:30;14.20;99.90
20068;DHT22;10194;50.824;7.134;2022-10-16T00:30:56;14.20;99.90
20068;DHT22;10194;50.824;7.134;2022-10-16T00:33:23;14.20;99.90
20068;DHT22;10194;50.824;7.134;2022-10-16T00:35:49;14.20;99.90
20068;DHT22;10194;50.824;7.134;2022-10-16T00:38:16;14.20;99.90
20068;DHT22;10194;50.824;7.134;2022-10-16T00:40:42;14.20;99.90
20068;DHT22;10194;50.824;7.134;2022-10-16T00:43:37;14.20;99.90
20068;DHT22;10194;50.824;7.134;2022-10-16T00:46:17;14.20;99.90
20068;DHT22;10194;50.824;7.134;2022-10-16T00:48:57;14.10;99.90
20068;DHT22;10194;50.824;7.134;2022-10-16T00:51:49;14.10;99.90
20068;DHT22;10194;50.824;7.134;2022-10-16T00:54:23;14.10;99.90
20068;DHT22;10194;50.824;7.134;2022-10-16T00:56:51;14.10;99.90
20068;DHT22;10194;50.824;7.134;2022-10-16T00:59:30;14.00;99.90
20068;DHT22;10194;50.824;7.134;2022-10-16T01:02:08;14.10;99.90
20068;DHT22;10194;50.824;7.134;2022-10-16T01:04:44;14.00;99.90
20068;DHT22;10194;50.824;7.134;2022-10-16T01:13:07;14.00;99.90
20068;DHT22;10194;50.824;7.134;2022-10-16T01:15:55;14.00;99.90
20068;DHT22;10194;50.824;7.134;2022-10-16T01:18:43;14.00;99.90
20068;DHT22;10194;50.824;7.134;2022-10-16T01:21:41;14.00;99.90
20068;DHT22;10194;50.824;7.134;2022-10-16T01:24:32;13.90;99.90
20068;DHT22;10194;50.824;7.134;2022-10-16T01:27:11;13.90;99.90
20068;DHT22;10194;50.824;7.134;2022-10-16T01:30:16;13.90;99.90
20068;DHT22;10194;50.824;7.134;2022-10-16T01:32:50;13.80;99.90
20068;DHT22;10194;50.824;7.134;2022-10-16T01:38:17;13.80;99.90
20068;DHT22;10194;50.824;7.134;2022-10-16T01:40:49;13.70;99.90
20068;DHT22;10194;50.824;7.134;2022-10-16T01:43:24;13.70;99.90
20068;DHT22;10194;50.824;7.134;2022-10-16T01:45:53;13.70;99.90
20068;DHT22;10194;50.824;7.134;2022-10-16T01:48:20;13.70;99.90
20068;DHT22;10194;50.824;7.134;2022-10-16T01:51:01;13.60;99.90
20068;DHT22;10194;50.824;7.134;2022-10-16T01:53:31;13.60;99.90
20068;DHT22;10194;50.824;7.134;2022-10-16T01:55:59;13.60;99.90
20068;DHT22;10194;50.824;7.134;2022-10-16T01:58:25;13.50;99.90
20068;DHT22;10194;50.824;7.134;2022-10-16T02:00:53;13.50;99.90
20068;DHT22;10194;50.824;7.134;2022-10-16T02:03:20;13.50;99.90
20068;DHT22;10194;50.824;7.134;2022-10-16T02:05:54;13.50;99.90
20068;DHT22;10194;50.824;7.134;2022-10-16T02:08:23;13.50;99.90
20068;DHT22;10194;50.824;7.134;2022-10-16T02:10:50;13.50;99.90
20068;DHT22;10194;50.824;7.134;2022-10-16T02:15:52;13.50;99.90
20068;DHT22;10194;50.824;7.134;2022-10-16T02:18:18;13.50;99.90
20068;DHT22;10194;50.824;7.134;2022-10-16T02:20:53;13.50;99.90
20068;DHT22;10194;50.824;7.134;2022-10-16T02:26:12;13.60;99.90
20068;DHT22;10194;50.824;7.134;2022-10-16T02:28:46;13.70;99.90
20068;DHT22;10194;50.824;7.134;2022-10-16T02:31:18;13.70;99.90
20068;DHT22;10194;50.824;7.134;2022-10-16T02:33:48;13.70;99.90
20068;DHT22;10194;50.824;7.134;2022-10-16T02:36:16;13.70;99.90
20068;DHT22;10194;50.824;7.134;2022-10-16T02:38:42;13.70;99.90
20068;DHT22;10194;50.824;7.134;2022-10-16T02:41:08;13.70;99.90
20068;DHT22;10194;50.824;7.134;2022-10-16T02:43:34;13.70;99.90
20068;DHT22;10194;50.824;7.134;2022-10-16T02:46:00;13.70;99.90
20068;DHT22;10194;50.824;7.134;2022-10-16T02:48:26;13.70;99.90
20068;DHT22;10194;50.824;7.134;2022-10-16T02:50:51;13.80;99.90
20068;DHT22;10194;50.824;7.134;2022-10-16T02:53:17;13.80;99.90
20068;DHT22;10194;50.824;7.134;2022-10-16T02:55:43;13.80;99.90
20068;DHT22;10194;50.824;7.134;2022-10-16T02:58:09;13.80;99.90
20068;DHT22;10194;50.824;7.134;2022-10-16T03:00:34;13.80;99.90
20068;DHT22;10194;50.824;7.134;2022-10-16T03:03:00;13.80;99.90
20068;DHT22;10194;50.824;7.134;2022-10-16T03:05:26;13.80;99.90
20068;DHT22;10194;50.824;7.134;2022-10-16T03:07:52;13.80;99.90
20068;DHT22;10194;50.824;7.134;2022-10-16T03:10:18;13.80;99.90
20068;DHT22;10194;50.824;7.134;2022-10-16T03:12:44;13.80;99.90
20068;DHT22;10194;50.824;7.134;2022-10-16T03:15:10;13.80;99.90
20068;DHT22;10194;50.824;7.134;2022-10-16T03:17:35;13.80;99.90
20068;DHT22;10194;50.824;7.134;2022-10-16T03:20:02;13.80;99.90
20068;DHT22;10194;50.824;7.134;2022-10-16T03:22:28;13.70;99.90
20068;DHT22;10194;50.824;7.134;2022-10-16T03:24:54;13.70;99.90
20068;DHT22;10194;50.824;7.134;2022-10-16T03:27:19;13.70;99.90
20068;DHT22;10194;50.824;7.134;2022-10-16T03:29:45;13.70;99.90
20068;DHT22;10194;50.824;7.134;2022-10-16T03:32:11;13.70;99.90
20068;DHT22;10194;50.824;7.134;2022-10-16T03:34:37;13.80;99.90
20068;DHT22;10194;50.824;7.134;2022-10-16T03:37:02;13.80;99.90
20068;DHT22;10194;50.824;7.134;2022-10-16T03:39:28;13.80;99.90
20068;DHT22;10194;50.824;7.134;2022-10-16T03:41:54;13.70;99.90
20068;DHT22;10194;50.824;7.134;2022-10-16T03:44:20;13.80;99.90
20068;DHT22;10194;50.824;7.134;2022-10-16T03:46:46;13.80;99.90
20068;DHT22;10194;50.824;7.134;2022-10-16T03:49:12;13.80;99.90
20068;DHT22;10194;50.824;7.134;2022-10-16T03:51:38;13.80;99.90
20068;DHT22;10194;50.824;7.134;2022-10-16T03:54:03;13.80;99.90
20068;DHT22;10194;50.824;7.134;2022-10-16T03:56:29;13.80;99.90
20068;DHT22;10194;50.824;7.134;2022-10-16T03:58:55;13.80;99.90
20068;DHT22;10194;50.824;7.134;2022-10-16T04:01:21;13.80;99.90
20068;DHT22;10194;50.824;7.134;2022-10-16T04:03:46;13.80;99.90
20068;DHT22;10194;50.824;7.134;2022-10-16T04:06:12;13.90;99.90
20068;DHT22;10194;50.824;7.134;2022-10-16T04:08:38;13.90;99.90
20068;DHT22;10194;50.824;7.134;2022-10-16T04:11:04;13.90;99.90
20068;DHT22;10194;50.824;7.134;2022-10-16T04:13:30;14.00;99.90
20068;DHT22;10194;50.824;7.134;2022-10-16T04:15:56;14.00;99.90
20068;DHT22;10194;50.824;7.134;2022-10-16T04:18:22;14.00;99.90
20068;DHT22;10194;50.824;7.134;2022-10-16T04:20:48;14.10;99.90
20068;DHT22;10194;50.824;7.134;2022-10-16T04:23:14;14.10;99.90
20068;DHT22;10194;50.824;7.134;2022-10-16T04:25:39;14.10;99.90
20068;DHT22;10194;50.824;7.134;2022-10-16T04:28:05;14.10;99.90
20068;DHT22;10194;50.824;7.134;2022-10-16T04:30:31;14.10;99.90
20068;DHT22;10194;50.824;7.134;2022-10-16T04:32:58;14.10;99.90
20068;DHT22;10194;50.824;7.134;2022-10-16T04:35:24;14.20;99.90
20068;DHT22;10194;50.824;7.134;2022-10-16T04:37:50;14.10;99.90
20068;DHT22;10194;50.824;7.134;2022-10-16T04:40:16;14.10;99.90
20068;DHT22;10194;50.824;7.134;2022-10-16T04:42:41;14.10;99.90
20068;DHT22;10194;50.824;7.134;2022-10-16T04:45:07;14.10;99.90
20068;DHT22;10194;50.824;7.134;2022-10-16T04:47:34;14.10;99.90
20068;DHT22;10194;50.824;7.134;2022-10-16T04:50:00;14.10;99.90
20068;DHT22;10194;50.824;7.134;2022-10-16T04:52:28;14.10;99.90
20068;DHT22;10194;50.824;7.134;2022-10-16T04:54:54;14.20;99.90
20068;DHT22;10194;50.824;7.134;2022-10-16T04:57:21;14.20;99.90
20068;DHT22;10194;50.824;7.134;2022-10-16T04:59:46;14.20;99.90
20068;DHT22;10194;50.824;7.134;2022-10-16T05:02:12;14.20;99.90
20068;DHT22;10194;50.824;7.134;2022-10-16T05:04:38;14.20;99.90
20068;DHT22;10194;50.824;7.134;2022-10-16T05:07:03;14.20;99.90
20068;DHT22;10194;50.824;7.134;2022-10-16T05:09:29;14.20;99.90
20068;DHT22;10194;50.824;7.134;2022-10-16T05:11:55;14.20;99.90
20068;DHT22;10194;50.824;7.134;2022-10-16T05:14:21;14.20;99.90
20068;DHT22;10194;50.824;7.134;2022-10-16T05:16:46;14.10;99.90
20068;DHT22;10194;50.824;7.134;2022-10-16T05:19:13;14.20;99.90
20068;DHT22;10194;50.824;7.134;2022-10-16T05:21:39;14.20;99.90
20068;DHT22;10194;50.824;7.134;2022-10-16T05:24:05;14.20;99.90
20068;DHT22;10194;50.824;7.134;2022-10-16T05:26:30;14.10;99.90
20068;DHT22;10194;50.824;7.134;2022-10-16T05:28:56;14.20;99.90
20068;DHT22;10194;50.824;7.134;2022-10-16T05:31:22;14.20;99.90
20068;DHT22;10194;50.824;7.134;2022-10-16T05:33:48;14.20;99.90
20068;DHT22;10194;50.824;7.134;2022-10-16T05:36:14;14.20;99.90
20068;DHT22;10194;50.824;7.134;2022-10-16T05:38:39;14.20;99.90
20068;DHT22;10194;50.824;7.134;2022-10-16T05:41:06;14.20;99.90
20068;DHT22;10194;50.824;7.134;2022-10-16T05:43:32;14.20;99.90
20068;DHT22;10194;50.824;7.134;2022-10-16T05:46:03;14.20;99.90
20068;DHT22;10194;50.824;7.134;2022-10-16T05:48:30;14.20;99.90
20068;DHT22;10194;50.824;7.134;2022-10-16T05:51:02;14.20;99.90
20068;DHT22;10194;50.824;7.134;2022-10-16T05:53:35;14.10;99.90
20068;DHT22;10194;50.824;7.134;2022-10-16T05:56:02;14.10;99.90
20068;DHT22;10194;50.824;7.134;2022-10-16T05:58:36;14.10;99.90
20068;DHT22;10194;50.824;7.134;2022-10-16T06:01:05;14.10;99.90
20068;DHT22;10194;50.824;7.134;2022-10-16T06:03:33;14.10;99.90
20068;DHT22;10194;50.824;7.134;2022-10-16T06:05:59;14.10;99.90
20068;DHT22;10194;50.824;7.134;2022-10-16T06:08:36;14.00;99.90
20068;DHT22;10194;50.824;7.134;2022-10-16T06:11:07;14.00;99.90
20068;DHT22;10194;50.824;7.134;2022-10-16T06:13:34;14.00;99.90
20068;DHT22;10194;50.824;7.134;2022-10-16T06:16:01;14.00;99.90
20068;DHT22;10194;50.824;7.134;2022-10-16T06:18:28;14.00;99.90
20068;DHT22;10194;50.824;7.134;2022-10-16T06:20:56;14.00;99.90
20068;DHT22;10194;50.824;7.134;2022-10-16T06:23:22;13.90;99.90
20068;DHT22;10194;50.824;7.134;2022-10-16T06:25:48;13.90;99.90
20068;DHT22;10194;50.824;7.134;2022-10-16T06:28:15;13.90;99.90
20068;DHT22;10194;50.824;7.134;2022-10-16T06:30:42;13.90;99.90
20068;DHT22;10194;50.824;7.134;2022-10-16T06:33:11;13.90;99.90
20068;DHT22;10194;50.824;7.134;2022-10-16T06:35:37;13.80;99.90
20068;DHT22;10194;50.824;7.134;2022-10-16T06:38:03;13.80;99.90
20068;DHT22;10194;50.824;7.134;2022-10-16T06:40:28;13.80;99.90
20068;DHT22;10194;50.824;7.134;2022-10-16T06:42:55;13.90;99.90
20068;DHT22;10194;50.824;7.134;2022-10-16T06:45:21;13.90;99.90
20068;DHT22;10194;50.824;7.134;2022-10-16T06:47:46;13.90;99.90
20068;DHT22;10194;50.824;7.134;2022-10-16T06:50:12;13.90;99.90
20068;DHT22;10194;50.824;7.134;2022-10-16T06:52:38;13.90;99.90
20068;DHT22;10194;50.824;7.134;2022-10-16T06:55:04;13.90;99.90
20068;DHT22;10194;50.824;7.134;2022-10-16T06:57:31;14.00;99.90
20068;DHT22;10194;50.824;7.134;2022-10-16T06:59:56;14.10;99.90
20068;DHT22;10194;50.824;7.134;2022-10-16T07:02:22;14.20;99.90
20068;DHT22;10194;50.824;7.134;2022-10-16T07:04:48;14.20;99.90
20068;DHT22;10194;50.824;7.134;2022-10-16T07:07:14;14.30;99.90
20068;DHT22;10194;50.824;7.134;2022-10-16T07:09:40;14.50;99.90
20068;DHT22;10194;50.824;7.134;2022-10-16T07:12:06;14.50;99.90
20068;DHT22;10194;50.824;7.134;2022-10-16T07:14:31;14.50;99.90
20068;DHT22;10194;50.824;7.134;2022-10-16T07:16:57;14.60;99.90
20068;DHT22;10194;50.824;7.134;2022-10-16T07:19:23;14.70;99.90
20068;DHT22;10194;50.824;7.134;2022-10-16T07:21:50;14.80;99.90
20068;DHT22;10194;50.824;7.134;2022-10-16T07:24:16;14.80;99.90
20068;DHT22;10194;50.824;7.134;2022-10-16T07:26:44;14.90;99.90
20068;DHT22;10194;50.824;7.134;2022-10-16T07:29:19;14.90;99.90
20068;DHT22;10194;50.824;7.134;2022-10-16T07:31:46;14.80;99.90
20068;DHT22;10194;50.824;7.134;2022-10-16T07:34:14;14.80;99.90
20068;DHT22;10194;50.824;7.134;2022-10-16T07:36:41;14.80;99.90
20068;DHT22;10194;50.824;7.134;2022-10-16T07:39:07;14.80;99.90
20068;DHT22;10194;50.824;7.134;2022-10-16T07:41:33;14.90;99.90
20068;DHT22;10194;50.824;7.134;2022-10-16T07:44:02;14.90;99.90
20068;DHT22;10194;50.824;7.134;2022-10-16T07:46:29;14.80;99.90
20068;DHT22;10194;50.824;7.134;2022-10-16T07:48:55;14.90;99.90
20068;DHT22;10194;50.824;7.134;2022-10-16T07:51:23;14.90;99.90
20068;DHT22;10194;50.824;7.134;2022-10-16T07:53:50;15.00;99.90
20068;DHT22;10194;50.824;7.134;2022-10-16T07:56:17;15.00;99.90
20068;DHT22;10194;50.824;7.134;2022-10-16T07:58:44;15.10;99.90
20068;DHT22;10194;50.824;7.134;2022-10-16T08:01:12;15.10;99.90
20068;DHT22;10194;50.824;7.134;2022-10-16T08:03:42;15.40;99.90
20068;DHT22;10194;50.824;7.134;2022-10-16T08:06:15;15.50;99.90
20068;DHT22;10194;50.824;7.134;2022-10-16T08:08:41;15.40;99.90
20068;DHT22;10194;50.824;7.134;2022-10-16T08:11:07;15.30;99.90
20068;DHT22;10194;50.824;7.134;2022-10-16T08:13:33;15.20;99.90
20068;DHT22;10194;50.824;7.134;2022-10-16T08:16:00;15.10;99.90
20068;DHT22;10194;50.824;7.134;2022-10-16T08:18:26;15.00;99.90
20068;DHT22;10194;50.824;7.134;2022-10-16T08:20:56;15.00;99.90
20068;DHT22;10194;50.824;7.134;2022-10-16T08:23:23;14.90;99.90
20068;DHT22;10194;50.824;7.134;2022-10-16T08:25:51;15.00;99.90
20068;DHT22;10194;50.824;7.134;2022-10-16T08:28:21;15.10;99.90
20068;DHT22;10194;50.824;7.134;2022-10-16T08:30:48;15.20;99.90
20068;DHT22;10194;50.824;7.134;2022-10-16T08:33:14;15.20;99.90
20068;DHT22;10194;50.824;7.134;2022-10-16T08:35:40;15.30;99.90
20068;DHT22;10194;50.824;7.134;2022-10-16T08:38:06;15.40;99.90
20068;DHT22;10194;50.824;7.134;2022-10-16T08:40:34;15.50;99.90
20068;DHT22;10194;50.824;7.134;2022-10-16T08:51:25;15.70;99.90
20068;DHT22;10194;50.824;7.134;2022-10-16T08:53:57;15.70;99.90
20068;DHT22;10194;50.824;7.134;2022-10-16T08:56:25;15.70;99.90
20068;DHT22;10194;50.824;7.134;2022-10-16T08:58:52;15.80;99.90
20068;DHT22;10194;50.824;7.134;2022-10-16T09:01:21;15.80;99.90
20068;DHT22;10194;50.824;7.134;2022-10-16T09:07:04;15.90;99.90
20068;DHT22;10194;50.824;7.134;2022-10-16T09:15:23;16.00;99.90
20068;DHT22;10194;50.824;7.134;2022-10-16T09:20:51;16.20;99.90
20068;DHT22;10194;50.824;7.134;2022-10-16T09:23:29;16.20;99.90
20068;DHT22;10194;50.824;7.134;2022-10-16T09:25:58;16.20;99.90
20068;DHT22;10194;50.824;7.134;2022-10-16T09:28:24;16.30;99.90
20068;DHT22;10194;50.824;7.134;2022-10-16T09:30:50;16.40;99.90
20068;DHT22;10194;50.824;7.134;2022-10-16T09:33:19;16.40;99.90
20068;DHT22;10194;50.824;7.134;2022-10-16T09:35:51;16.50;99.90
20068;DHT22;10194;50.824;7.134;2022-10-16T09:38:31;16.40;99.90
20068;DHT22;10194;50.824;7.134;2022-10-16T09:41:02;16.50;99.90
20068;DHT22;10194;50.824;7.134;2022-10-16T09:43:55;16.50;99.90
20068;DHT22;10194;50.824;7.134;2022-10-16T09:46:33;16.60;99.90
20068;DHT22;10194;50.824;7.134;2022-10-16T09:49:16;16.60;99.90
20068;DHT22;10194;50.824;7.134;2022-10-16T09:52:02;16.80;99.90
20068;DHT22;10194;50.824;7.134;2022-10-16T09:54:52;16.90;99.90
20068;DHT22;10194;50.824;7.134;2022-10-16T09:57:19;16.90;99.90
20068;DHT22;10194;50.824;7.134;2022-10-16T09:59:51;16.90;99.90
20068;DHT22;10194;50.824;7.134;2022-10-16T10:02:28;16.90;99.90
20068;DHT22;10194;50.824;7.134;2022-10-16T10:04:56;16.90;99.90
20068;DHT22;10194;50.824;7.134;2022-10-16T10:07:28;16.90;99.90
20068;DHT22;10194;50.824;7.134;2022-10-16T10:10:01;17.00;99.90
20068;DHT22;10194;50.824;7.134;2022-10-16T10:16:46;17.20;99.90
20068;DHT22;10194;50.824;7.134;2022-10-16T10:19:23;17.20;99.90
20068;DHT22;10194;50.824;7.134;2022-10-16T10:21:50;17.20;99.90
20068;DHT22;10194;50.824;7.134;2022-10-16T10:24:18;17.30;99.90
20068;DHT22;10194;50.824;7.134;2022-10-16T10:30:15;17.50;99.90
20068;DHT22;10194;50.824;7.134;2022-10-16T10:54:11;18.60;99.90
20068;DHT22;10194;50.824;7.134;2022-10-16T11:02:37;18.50;99.90
20068;DHT22;10194;50.824;7.134;2022-10-16T11:05:40;18.50;99.90
20068;DHT22;10194;50.824;7.134;2022-10-16T11:08:17;18.60;99.90
20068;DHT22;10194;50.824;7.134;2022-10-16T11:11:01;18.60;99.90
20068;DHT22;10194;50.824;7.134;2022-10-16T11:17:19;18.40;99.90
20068;DHT22;10194;50.824;7.134;2022-10-16T11:25:33;18.50;99.90
20068;DHT22;10194;50.824;7.134;2022-10-16T11:28:16;18.60;99.90
20068;DHT22;10194;50.824;7.134;2022-10-16T11:34:22;18.50;99.90
20068;DHT22;10194;50.824;7.134;2022-10-16T11:39:30;18.30;99.90
20068;DHT22;10194;50.824;7.134;2022-10-16T11:44:53;18.20;99.90
20068;DHT22;10194;50.824;7.134;2022-10-16T11:47:40;18.20;99.90
20068;DHT22;10194;50.824;7.134;2022-10-16T11:53:08;18.10;99.90
20068;DHT22;10194;50.824;7.134;2022-10-16T11:55:39;18.10;99.90
20068;DHT22;10194;50.824;7.134;2022-10-16T11:58:28;18.20;99.90
20068;DHT22;10194;50.824;7.134;2022-10-16T12:09:31;18.40;99.90
20068;DHT22;10194;50.824;7.134;2022-10-16T12:11:59;18.50;99.90
20068;DHT22;10194;50.824;7.134;2022-10-16T12:14:37;18.50;99.90
20068;DHT22;10194;50.824;7.134;2022-10-16T12:17:35;18.60;99.90
20068;DHT22;10194;50.824;7.134;2022-10-16T12:22:41;18.70;99.90
20068;DHT22;10194;50.824;7.134;2022-10-16T12:25:28;18.70;99.90
20068;DHT22;10194;50.824;7.134;2022-10-16T12:30:41;18.80;99.90
20068;DHT22;10194;50.824;7.134;2022-10-16T12:33:32;18.90;99.90
20068;DHT22;10194;50.824;7.134;2022-10-16T12:36:02;18.80;99.90
20068;DHT22;10194;50.824;7.134;2022-10-16T12:38:51;18.80;99.90
20068;DHT22;10194;50.824;7.134;2022-10-16T12:41:34;18.80;99.90
20068;DHT22;10194;50.824;7.134;2022-10-16T12:44:01;18.90;99.90
20068;DHT22;10194;50.824;7.134;2022-10-16T12:51:40;18.90;99.90
20068;DHT22;10194;50.824;7.134;2022-10-16T13:06:19;19.10;99.90
20068;DHT22;10194;50.824;7.134;2022-10-16T13:28:17;19.40;99.90
20068;DHT22;10194;50.824;7.134;2022-10-16T13:30:56;19.40;99.90
20068;DHT22;10194;50.824;7.134;2022-10-16T13:33:36;19.40;99.90
20068;DHT22;10194;50.824;7.134;2022-10-16T13:36:23;19.40;99.90
20068;DHT22;10194;50.824;7.134;2022-10-16T13:39:13;19.40;99.90
20068;DHT22;10194;50.824;7.134;2022-10-16T13:42:01;19.40;99.90
20068;DHT22;10194;50.824;7.134;2022-10-16T13:44:43;19.50;99.90
20068;DHT22;10194;50.824;7.134;2022-10-16T13:47:23;19.40;99.90
20068;DHT22;10194;50.824;7.134;2022-10-16T13:50:11;19.40;99.90
20068;DHT22;10194;50.824;7.134;2022-10-16T13:52:38;19.40;99.90
20068;DHT22;10194;50.824;7.134;2022-10-16T13:55:16;19.40;99.90
20068;DHT22;10194;50.824;7.134;2022-10-16T13:57:43;19.40;99.90
20068;DHT22;10194;50.824;7.134;2022-10-16T14:00:24;19.30;99.90
20068;DHT22;10194;50.824;7.134;2022-10-16T14:03:13;19.30;99.90
20068;DHT22;10194;50.824;7.134;2022-10-16T14:05:52;19.30;99.90
20068;DHT22;10194;50.824;7.134;2022-10-16T14:08:20;19.30;99.90
20068;DHT22;10194;50.824;7.134;2022-10-16T14:10:52;19.30;99.90
20068;DHT22;10194;50.824;7.134;2022-10-16T14:13:40;19.30;99.90
20068;DHT22;10194;50.824;7.134;2022-10-16T14:16:22;19.20;99.90
20068;DHT22;10194;50.824;7.134;2022-10-16T14:18:59;19.20;99.90
20068;DHT22;10194;50.824;7.134;2022-10-16T14:21:28;19.20;99.90
20068;DHT22;10194;50.824;7.134;2022-10-16T14:23:54;19.30;99.90
20068;DHT22;10194;50.824;7.134;2022-10-16T14:26:23;19.20;99.90
20068;DHT22;10194;50.824;7.134;2022-10-16T14:29:08;19.30;99.90
20068;DHT22;10194;50.824;7.134;2022-10-16T14:31:37;19.40;99.90
20068;DHT22;10194;50.824;7.134;2022-10-16T14:34:05;19.30;99.90
20068;DHT22;10194;50.824;7.134;2022-10-16T14:36:50;19.30;99.90
20068;DHT22;10194;50.824;7.134;2022-10-16T14:39:21;19.20;99.90
20068;DHT22;10194;50.824;7.134;2022-10-16T14:41:49;19.20;99.90
20068;DHT22;10194;50.824;7.134;2022-10-16T14:44:18;19.20;99.90
20068;DHT22;10194;50.824;7.134;2022-10-16T14:46:47;19.20;99.90
20068;DHT22;10194;50.824;7.134;2022-10-16T14:49:18;19.30;99.90
20068;DHT22;10194;50.824;7.134;2022-10-16T14:51:45;19.30;99.90
20068;DHT22;10194;50.824;7.134;2022-10-16T14:54:16;19.30;99.90
20068;DHT22;10194;50.824;7.134;2022-10-16T14:56:53;19.30;99.90
20068;DHT22;10194;50.824;7.134;2022-10-16T14:59:36;19.30;99.90
20068;DHT22;10194;50.824;7.134;2022-10-16T15:02:30;19.20;99.90
20068;DHT22;10194;50.824;7.134;2022-10-16T15:04:58;19.20;99.90
20068;DHT22;10194;50.824;7.134;2022-10-16T15:07:55;19.20;99.90
20068;DHT22;10194;50.824;7.134;2022-10-16T15:10:22;19.20;99.90
20068;DHT22;10194;50.824;7.134;2022-10-16T15:12:49;19.20;99.90
20068;DHT22;10194;50.824;7.134;2022-10-16T15:15:31;19.10;99.90
20068;DHT22;10194;50.824;7.134;2022-10-16T15:17:59;19.10;99.90
20068;DHT22;10194;50.824;7.134;2022-10-16T15:20:31;19.10;99.90
20068;DHT22;10194;50.824;7.134;2022-10-16T15:23:13;19.00;99.90
20068;DHT22;10194;50.824;7.134;2022-10-16T15:25:49;19.00;99.90
20068;DHT22;10194;50.824;7.134;2022-10-16T15:28:17;19.00;99.90
20068;DHT22;10194;50.824;7.134;2022-10-16T15:30:44;18.90;99.90
20068;DHT22;10194;50.824;7.134;2022-10-16T15:33:16;18.90;99.90
20068;DHT22;10194;50.824;7.134;2022-10-16T15:35:46;18.90;99.90
20068;DHT22;10194;50.824;7.134;2022-10-16T15:38:13;18.80;99.90
20068;DHT22;10194;50.824;7.134;2022-10-16T15:40:40;18.80;99.90
20068;DHT22;10194;50.824;7.134;2022-10-16T15:43:07;18.80;99.90
20068;DHT22;10194;50.824;7.134;2022-10-16T15:45:33;18.70;99.90
20068;DHT22;10194;50.824;7.134;2022-10-16T15:47:59;18.70;99.90
20068;DHT22;10194;50.824;7.134;2022-10-16T15:50:25;18.70;99.90
20068;DHT22;10194;50.824;7.134;2022-10-16T15:52:52;18.70;99.90
20068;DHT22;10194;50.824;7.134;2022-10-16T15:55:18;18.60;99.90
20068;DHT22;10194;50.824;7.134;2022-10-16T15:57:44;18.60;99.90
20068;DHT22;10194;50.824;7.134;2022-10-16T16:00:15;18.60;99.90
20068;DHT22;10194;50.824;7.134;2022-10-16T16:02:43;18.60;99.90
20068;DHT22;10194;50.824;7.134;2022-10-16T16:05:10;18.60;99.90
20068;DHT22;10194;50.824;7.134;2022-10-16T16:07:38;18.50;99.90
20068;DHT22;10194;50.824;7.134;2022-10-16T16:10:06;18.50;99.90
20068;DHT22;10194;50.824;7.134;2022-10-16T16:12:33;18.50;99.90
20068;DHT22;10194;50.824;7.134;2022-10-16T16:14:59;18.50;99.90
20068;DHT22;10194;50.824;7.134;2022-10-16T16:17:25;18.50;99.90
20068;DHT22;10194;50.824;7.134;2022-10-16T16:19:51;18.50;99.90
20068;DHT22;10194;50.824;7.134;2022-10-16T16:22:17;18.40;99.90
20068;DHT22;10194;50.824;7.134;2022-10-16T16:24:43;18.40;99.90
20068;DHT22;10194;50.824;7.134;2022-10-16T16:27:09;18.40;99.90
20068;DHT22;10194;50.824;7.134;2022-10-16T16:29:35;18.40;99.90
20068;DHT22;10194;50.824;7.134;2022-10-16T16:32:01;18.40;99.90
20068;DHT22;10194;50.824;7.134;2022-10-16T16:34:28;18.30;99.90
20068;DHT22;10194;50.824;7.134;2022-10-16T16:36:55;18.30;99.90
20068;DHT22;10194;50.824;7.134;2022-10-16T16:39:21;18.30;99.90
20068;DHT22;10194;50.824;7.134;2022-10-16T16:41:47;18.30;99.90
20068;DHT22;10194;50.824;7.134;2022-10-16T16:44:14;18.30;99.90
20068;DHT22;10194;50.824;7.134;2022-10-16T16:46:41;18.30;99.90
20068;DHT22;10194;50.824;7.134;2022-10-16T16:49:10;18.30;99.90
20068;DHT22;10194;50.824;7.134;2022-10-16T16:51:37;18.30;99.90
20068;DHT22;10194;50.824;7.134;2022-10-16T16:54:04;18.30;99.90
20068;DHT22;10194;50.824;7.134;2022-10-16T16:56:30;18.30;99.90
20068;DHT22;10194;50.824;7.134;2022-10-16T16:58:57;18.20;99.90
20068;DHT22;10194;50.824;7.134;2022-10-16T17:01:26;18.20;99.90
20068;DHT22;10194;50.824;7.134;2022-10-16T17:03:55;18.20;99.90
20068;DHT22;10194;50.824;7.134;2022-10-16T17:06:27;18.10;99.90
20068;DHT22;10194;50.824;7.134;2022-10-16T17:08:58;18.10;99.90
20068;DHT22;10194;50.824;7.134;2022-10-16T17:11:27;18.10;99.90
20068;DHT22;10194;50.824;7.134;2022-10-16T17:13:54;18.10;99.90
20068;DHT22;10194;50.824;7.134;2022-10-16T17:17:56;18.10;99.90
20068;DHT22;10194;50.824;7.134;2022-10-16T17:20:21;18.10;99.90
20068;DHT22;10194;50.824;7.134;2022-10-16T17:24:16;18.10;99.90
20068;DHT22;10194;50.824;7.134;2022-10-16T17:26:43;18.00;99.90
20068;DHT22;10194;50.824;7.134;2022-10-16T17:29:14;18.00;99.90
20068;DHT22;10194;50.824;7.134;2022-10-16T17:31:40;18.00;99.90
20068;DHT22;10194;50.824;7.134;2022-10-16T17:34:08;18.00;99.90
20068;DHT22;10194;50.824;7.134;2022-10-16T17:36:36;18.00;99.90
20068;DHT22;10194;50.824;7.134;2022-10-16T17:39:05;18.00;99.90
20068;DHT22;10194;50.824;7.134;2022-10-16T17:41:34;18.00;99.90
20068;DHT22;10194;50.824;7.134;2022-10-16T17:44:03;17.90;99.90
20068;DHT22;10194;50.824;7.134;2022-10-16T17:46:29;17.90;99.90
20068;DHT22;10194;50.824;7.134;2022-10-16T17:48:55;17.90;99.90
20068;DHT22;10194;50.824;7.134;2022-10-16T17:51:28;18.00;99.90
20068;DHT22;10194;50.824;7.134;2022-10-16T17:53:57;17.90;99.90
20068;DHT22;10194;50.824;7.134;2022-10-16T17:56:25;17.90;99.90
20068;DHT22;10194;50.824;7.134;2022-10-16T17:58:53;17.90;99.90
20068;DHT22;10194;50.824;7.134;2022-10-16T18:01:26;17.80;99.90
20068;DHT22;10194;50.824;7.134;2022-10-16T18:03:59;17.80;99.90
20068;DHT22;10194;50.824;7.134;2022-10-16T18:06:27;17.90;99.90
20068;DHT22;10194;50.824;7.134;2022-10-16T18:08:54;17.80;99.90
20068;DHT22;10194;50.824;7.134;2022-10-16T18:11:23;17.80;99.90
20068;DHT22;10194;50.824;7.134;2022-10-16T18:13:51;17.80;99.90